Time;durP1;ratioP1;P1;durP2;ratioP2;P2;SDS_P1;SDS_P2;PMS_P1;PMS_P2;Temp;Humidity;BMP_temperature;BMP_pressure;BME280_temperature;BME280_humidity;BME280_pressure;Samples;Min_cycle;Max_cycle;Signal;HPM_P1;HPM_P2
2023/03/22 00:01:57;;;;;;;2.63;0.93;;;;;;;10.17;75.82;98596.75;4979592;28;20051;-50
2023/03/22 00:04:25;;;;;;;3.58;0.80;;;;;;;10.15;75.94;98582.97;4982599;28;20084;-49
2023/03/22 00:06:51;;;;;;;5.97;0.95;;;;;;;10.20;75.65;98575.94;4978166;28;20702;-49
2023/03/22 00:09:18;;;;;;;2.55;0.45;;;;;;;10.19;75.46;98574.25;4978508;28;20645;-48
2023/03/22 00:11:45;;;;;;;7.15;0.60;;;;;;;10.23;75.93;98575.03;4974366;28;20618;-50
2023/03/22 00:14:11;;;;;;;5.10;1.17;;;;;;;10.14;76.55;98560.59;4979615;28;20042;-49
2023/03/22 00:16:38;;;;;;;5.03;1.48;;;;;;;10.15;76.55;98557.13;4980217;28;20058;-48
2023/03/22 00:19:04;;;;;;;5.25;0.57;;;;;;;10.18;75.85;98559.63;4975466;28;20809;-48
2023/03/22 00:21:31;;;;;;;3.33;0.88;;;;;;;10.20;75.97;98555.25;4975151;28;20786;-52
2023/03/22 00:23:57;;;;;;;7.97;1.48;;;;;;;10.18;76.05;98546.69;4981204;28;20132;-49
2023/03/22 00:26:24;;;;;;;5.03;1.05;;;;;;;10.18;76.87;98549.28;4978808;28;20062;-49
2023/03/22 00:28:51;;;;;;;7.53;0.70;;;;;;;10.20;76.31;98544.06;4979634;28;20164;-48
2023/03/22 00:31:18;;;;;;;2.85;0.93;;;;;;;10.18;76.74;98533.75;4975804;28;20061;-48
2023/03/22 00:33:45;;;;;;;3.40;0.57;;;;;;;10.16;76.52;98522.59;4979534;28;20058;-50
2023/03/22 00:36:12;;;;;;;6.38;1.42;;;;;;;10.16;75.71;98512.22;4975354;28;20206;-51
2023/03/22 00:38:39;;;;;;;7.95;0.70;;;;;;;10.19;76.25;98506.97;4971854;28;20081;-50
2023/03/22 00:41:15;;;;;;;5.25;1.05;;;;;;;10.15;76.79;98502.78;4982329;28;20053;-50
2023/03/22 00:43:43;;;;;;;4.57;0.70;;;;;;;10.17;76.13;98488.09;4973362;28;20121;-48
2023/03/22 00:46:10;;;;;;;5.03;1.33;;;;;;;10.19;75.76;98486.28;4976356;28;20077;-51
2023/03/22 00:48:38;;;;;;;3.22;0.93;;;;;;;10.16;76.28;98489.81;4980923;28;20116;-48
2023/03/22 00:51:05;;;;;;;3.70;0.80;;;;;;;10.20;76.06;98476.78;4978979;28;20069;-52
2023/03/22 00:53:34;;;;;;;8.55;0.88;;;;;;;10.19;76.77;98481.09;4976730;28;20549;-48
2023/03/22 00:56:02;;;;;;;8.90;0.68;;;;;;;10.12;77.17;98464.06;4978970;28;20046;-47
2023/03/22 00:58:29;;;;;;;2.50;0.82;;;;;;;10.17;76.24;98467.38;4974675;28;20049;-49
2023/03/22 01:00:56;;;;;;;5.97;1.17;;;;;;;10.23;76.20;98467.19;4975983;28;20161;-48
2023/03/22 01:03:23;;;;;;;6.97;0.70;;;;;;;10.25;76.53;98455.09;4975409;28;20055;-49
2023/03/22 01:05:54;;;;;;;8.15;1.05;;;;;;;10.23;76.44;98459.44;4972483;28;20043;-48
2023/03/22 01:08:22;;;;;;;4.70;1.75;;;;;;;10.17;77.14;98446.69;4974159;28;20046;-49
2023/03/22 01:10:49;;;;;;;1.95;0.70;;;;;;;10.21;76.89;98453.47;4993394;28;20039;-49
2023/03/22 01:13:16;;;;;;;4.85;0.77;;;;;;;10.18;76.19;98443.19;4971641;28;20105;-48
2023/03/22 01:15:44;;;;;;;3.10;0.93;;;;;;;10.21;76.75;98437.94;4977093;28;20073;-48
2023/03/22 01:18:10;;;;;;;5.22;0.60;;;;;;;10.20;76.09;98425.88;4976964;28;20054;-48
2023/03/22 01:20:37;;;;;;;3.22;0.55;;;;;;;10.21;76.70;98425.00;4978526;28;20085;-48
2023/03/22 01:23:05;;;;;;;5.80;0.98;;;;;;;10.25;76.31;98431.78;4978924;28;20426;-50
2023/03/22 01:25:32;;;;;;;6.35;0.75;;;;;;;10.28;76.22;98425.69;4982791;28;20077;-49
2023/03/22 01:28:01;;;;;;;5.40;0.77;;;;;;;10.32;76.46;98413.50;4982288;28;20043;-49
2023/03/22 01:30:28;;;;;;;3.60;0.95;;;;;;;10.31;75.94;98420.44;4982803;28;20124;-47
2023/03/22 01:32:55;;;;;;;5.45;1.13;;;;;;;10.33;76.12;98413.47;4996662;28;20073;-48
2023/03/22 01:35:22;;;;;;;3.97;0.50;;;;;;;10.27;76.91;98406.72;4984766;28;20077;-48
2023/03/22 01:37:49;;;;;;;5.18;1.08;;;;;;;10.32;76.50;98406.59;4987094;28;20121;-49
2023/03/22 01:40:16;;;;;;;3.35;0.70;;;;;;;10.25;76.27;98387.81;4988500;28;20050;-49
2023/03/22 01:42:42;;;;;;;3.85;1.02;;;;;;;10.31;76.61;98383.34;5002078;28;20109;-49
2023/03/22 01:51:02;;;;;;;4.05;1.33;;;;;;;10.39;76.67;98369.28;5043296;27;20413;-48
2023/03/22 01:53:33;;;;;;;2.90;1.25;;;;;;;10.39;76.34;98358.94;5009441;28;20049;-51
2023/03/22 01:56:01;;;;;;;5.93;1.02;;;;;;;10.34;77.20;98359.97;5027493;28;20545;-48
2023/03/22 01:58:28;;;;;;;4.25;0.57;;;;;;;10.33;77.00;98353.09;5028711;28;20124;-50
2023/03/22 02:00:55;;;;;;;2.72;0.60;;;;;;;10.37;77.14;98344.34;5032543;28;20076;-49
2023/03/22 02:03:31;;;;;;;6.82;1.00;;;;;;;10.36;77.04;98337.47;5032910;28;20089;-51
2023/03/22 02:05:58;;;;;;;3.60;1.23;;;;;;;10.29;77.51;98336.81;5028811;28;20049;-49
2023/03/22 02:08:24;;;;;;;3.67;0.63;;;;;;;10.26;77.45;98322.22;5032933;28;20073;-49
2023/03/22 02:10:51;;;;;;;5.65;0.70;;;;;;;10.35;76.97;98330.59;5038848;28;20088;-49
2023/03/22 02:16:35;;;;;;;2.92;0.50;;;;;;;10.27;78.18;98334.25;5053439;28;20854;-49
2023/03/22 02:19:29;;;;;;;3.45;0.82;;;;;;;10.22;78.31;98324.94;5015603;28;20142;-48
2023/03/22 02:22:37;;;;;;;3.22;0.65;;;;;;;10.23;77.63;98311.97;5013734;28;20146;-49
2023/03/22 02:28:23;;;;;;;4.20;0.95;;;;;;;10.31;78.38;98277.25;5054120;28;20398;-50
2023/03/22 02:34:27;;;;;;;4.18;1.98;;;;;;;10.29;78.19;98311.78;5097347;27;20405;-48
2023/03/22 02:40:18;;;;;;;8.02;1.13;;;;;;;10.25;79.13;98299.84;5043509;28;20408;-49
2023/03/22 02:48:44;;;;;;;2.65;1.40;;;;;;;10.28;78.82;98294.56;5018263;27;20418;-51
2023/03/22 02:51:20;;;;;;;2.92;1.40;;;;;;;10.31;78.45;98267.75;5013609;28;20069;-49
2023/03/22 02:53:53;;;;;;;2.92;1.95;;;;;;;10.26;79.88;98279.97;5014781;28;20046;-49
2023/03/22 02:56:26;;;;;;;3.38;1.33;;;;;;;10.26;78.94;98274.78;5014285;28;20045;-49
2023/03/22 02:58:57;;;;;;;2.13;1.77;;;;;;;10.29;79.42;98274.69;5016183;28;20049;-52
2023/03/22 03:01:47;;;;;;;5.15;2.15;;;;;;;10.28;79.36;98268.69;5021303;28;20076;-49
2023/03/22 03:04:20;;;;;;;6.03;2.45;;;;;;;10.29;79.15;98267.78;5018762;28;20166;-48
2023/03/22 03:06:50;;;;;;;6.03;2.15;;;;;;;10.29;79.19;98267.78;5017134;28;20129;-50
2023/03/22 03:09:19;;;;;;;2.80;1.65;;;;;;;10.27;79.45;98264.41;5016712;28;20493;-49
2023/03/22 03:11:48;;;;;;;4.25;2.03;;;;;;;10.27;79.36;98256.63;5014813;28;20729;-49
2023/03/22 03:14:25;;;;;;;2.15;1.70;;;;;;;10.30;79.21;98263.44;5010982;28;20089;-49
2023/03/22 03:17:18;;;;;;;3.63;2.63;;;;;;;10.35;79.03;98263.31;5010663;28;20142;-48
2023/03/22 03:22:37;;;;;;;1.95;0.52;;;;;;;10.27;80.27;98251.47;5069588;27;20386;-48
2023/03/22 03:27:49;;;;;;;2.42;0.82;;;;;;;10.37;80.08;98254.59;5093835;27;20400;-49
2023/03/22 03:30:26;;;;;;;1.27;0.65;;;;;;;10.34;80.30;98246.09;5079613;28;20043;-50
2023/03/22 03:32:59;;;;;;;4.43;1.58;;;;;;;10.39;79.73;98251.97;5075694;28;20848;-49
2023/03/22 03:35:32;;;;;;;1.25;0.57;;;;;;;10.36;79.43;98245.16;5075202;28;20154;-49
2023/03/22 03:38:07;;;;;;;2.67;1.25;;;;;;;10.38;80.37;98248.56;5075400;28;20094;-50
2023/03/22 03:40:39;;;;;;;1.80;1.02;;;;;;;10.41;79.58;98250.19;5075819;28;20196;-50
2023/03/22 03:43:08;;;;;;;3.25;0.93;;;;;;;10.43;80.07;98237.22;5079278;28;20095;-49
2023/03/22 03:45:36;;;;;;;5.70;0.82;;;;;;;10.46;79.26;98240.56;5073275;28;20071;-48
2023/03/22 03:48:07;;;;;;;2.92;1.08;;;;;;;10.47;80.18;98231.91;5078559;28;20044;-53
2023/03/22 03:50:34;;;;;;;0.80;0.50;;;;;;;10.45;79.21;98228.53;5078536;28;20066;-48
2023/03/22 03:53:01;;;;;;;2.10;0.80;;;;;;;10.51;79.24;98217.97;5072812;28;20048;-49
2023/03/22 03:55:29;;;;;;;1.92;0.80;;;;;;;10.49;79.81;98219.78;5074152;27;20140;-49
2023/03/22 03:57:56;;;;;;;2.17;1.40;;;;;;;10.48;79.81;98215.50;5070690;27;20078;-53
2023/03/22 04:00:22;;;;;;;0.82;0.63;;;;;;;10.54;79.80;98223.06;5082390;28;20187;-50
2023/03/22 04:02:49;;;;;;;2.38;0.93;;;;;;;10.52;79.33;98201.56;5076469;27;20044;-51
2023/03/22 04:05:16;;;;;;;2.03;0.47;;;;;;;10.57;79.25;98216.09;5074701;28;20632;-49
2023/03/22 04:07:43;;;;;;;1.00;0.75;;;;;;;10.46;80.71;98193.97;5073194;28;20098;-49
2023/03/22 04:10:09;;;;;;;0.45;0.43;;;;;;;10.49;79.74;98204.25;5076878;28;20141;-52
2023/03/22 04:12:36;;;;;;;1.23;0.77;;;;;;;10.48;80.71;98191.34;5078361;28;20056;-49
2023/03/22 04:15:03;;;;;;;1.23;0.40;;;;;;;10.47;80.24;98190.50;5075080;28;20049;-53
2023/03/22 04:17:30;;;;;;;1.17;0.98;;;;;;;10.42;80.64;98182.00;5072955;28;20669;-49
2023/03/22 04:19:57;;;;;;;0.70;0.70;;;;;;;10.43;79.89;98178.50;5077433;28;20045;-51
2023/03/22 04:22:25;;;;;;;0.38;0.38;;;;;;;10.44;80.14;98154.34;5075752;28;20091;-49
2023/03/22 04:24:52;;;;;;;1.98;0.65;;;;;;;10.41;80.96;98128.56;5080008;28;20087;-51
2023/03/22 04:27:20;;;;;;;0.85;0.43;;;;;;;10.40;80.07;98160.50;5074728;28;20484;-49
2023/03/22 04:29:47;;;;;;;2.35;1.15;;;;;;;10.39;80.88;98182.97;5075440;28;20123;-52
2023/03/22 04:32:15;;;;;;;1.98;0.85;;;;;;;10.41;80.34;98195.84;5075706;27;20135;-50
2023/03/22 04:34:42;;;;;;;1.60;0.95;;;;;;;10.39;80.81;98189.88;5075212;28;20052;-48
2023/03/22 04:37:08;;;;;;;1.00;0.60;;;;;;;10.38;81.19;98194.22;5066027;28;20064;-51
2023/03/22 04:39:35;;;;;;;2.55;0.52;;;;;;;10.41;81.21;98201.03;5061663;28;20052;-48
2023/03/22 04:42:02;;;;;;;0.38;0.35;;;;;;;10.39;80.77;98192.44;5063177;28;20500;-48
2023/03/22 04:44:29;;;;;;;4.00;0.80;;;;;;;10.42;81.27;98187.19;5060543;28;20075;-50
2023/03/22 04:46:56;;;;;;;1.38;1.00;;;;;;;10.47;80.74;98187.91;5057313;28;21319;-51
2023/03/22 04:49:23;;;;;;;2.88;0.85;;;;;;;10.53;79.46;98195.47;5062114;28;20126;-48
2023/03/22 04:51:50;;;;;;;2.15;0.63;;;;;;;10.52;79.73;98193.78;5062457;28;20131;-50
2023/03/22 04:54:17;;;;;;;2.13;0.75;;;;;;;10.49;80.68;98193.03;5065703;28;20207;-51
2023/03/22 04:56:43;;;;;;;1.58;0.57;;;;;;;10.49;80.20;98193.03;5062959;28;20049;-51
2023/03/22 04:59:10;;;;;;;0.82;0.40;;;;;;;10.53;80.63;98200.66;5064192;28;20083;-52
2023/03/22 05:01:37;;;;;;;0.80;0.65;;;;;;;10.57;79.91;98210.91;5064989;28;20075;-51
2023/03/22 05:04:04;;;;;;;1.25;0.30;;;;;;;10.54;81.03;98201.53;5059832;28;20067;-49
2023/03/22 05:06:32;;;;;;;0.95;0.38;;;;;;;10.57;79.78;98200.56;5068282;28;20153;-48
2023/03/22 05:08:59;;;;;;;1.08;0.50;;;;;;;10.60;80.52;98197.88;5059286;28;20201;-51
2023/03/22 05:11:26;;;;;;;0.85;0.85;;;;;;;10.62;80.52;98199.53;5061958;28;20669;-50
2023/03/22 05:13:54;;;;;;;2.83;0.68;;;;;;;10.64;80.42;98207.25;5062928;28;20069;-49
2023/03/22 05:16:21;;;;;;;1.77;1.08;;;;;;;10.66;79.75;98195.06;5060243;28;20132;-49
2023/03/22 05:18:53;;;;;;;0.82;0.40;;;;;;;10.63;79.92;98190.00;5062425;28;20053;-48
2023/03/22 05:21:26;;;;;;;1.27;0.63;;;;;;;10.67;80.43;98191.59;5064267;28;20044;-50
2023/03/22 05:23:55;;;;;;;0.47;0.20;;;;;;;10.67;80.28;98194.16;5053778;28;20044;-48
2023/03/22 05:26:25;;;;;;;0.90;0.47;;;;;;;10.65;79.25;98181.31;5061929;28;20068;-49
2023/03/22 05:28:53;;;;;;;2.03;0.73;;;;;;;10.68;79.40;98175.16;5063863;28;20044;-48
2023/03/22 05:31:21;;;;;;;1.40;0.75;;;;;;;10.61;80.47;98196.97;5062982;28;20059;-50
2023/03/22 05:33:49;;;;;;;2.53;1.50;;;;;;;10.71;80.15;98197.53;5055991;28;20140;-49
2023/03/22 05:36:18;;;;;;;1.30;0.55;;;;;;;10.69;79.54;98213.09;5059525;28;20044;-49
2023/03/22 05:38:45;;;;;;;0.90;0.50;;;;;;;10.74;79.61;98213.78;5059642;28;20674;-49
2023/03/22 05:41:12;;;;;;;1.30;1.02;;;;;;;10.74;79.17;98218.97;5048512;28;20066;-49
2023/03/22 05:43:39;;;;;;;1.42;0.55;;;;;;;10.77;79.45;98224.06;5045284;28;20119;-48
2023/03/22 05:46:08;;;;;;;2.55;1.17;;;;;;;10.82;79.35;98242.03;5058406;28;20132;-53
2023/03/22 05:48:35;;;;;;;2.67;0.85;;;;;;;10.84;78.95;98242.00;5059899;28;20060;-50
2023/03/22 05:51:05;;;;;;;2.53;0.52;;;;;;;10.80;79.62;98233.47;5057807;28;20093;-50
2023/03/22 05:53:32;;;;;;;1.42;0.43;;;;;;;10.85;78.92;98248.84;5062092;28;20052;-49
2023/03/22 05:55:59;;;;;;;1.60;0.43;;;;;;;10.84;78.62;98239.41;5059060;28;20136;-51
2023/03/22 05:58:29;;;;;;;0.82;0.30;;;;;;;10.87;79.32;98224.59;5061357;28;20097;-50
2023/03/22 06:00:59;;;;;;;0.50;0.47;;;;;;;10.87;78.27;98234.09;5063119;28;20137;-51
2023/03/22 06:03:27;;;;;;;2.85;0.38;;;;;;;10.87;78.33;98249.63;5053233;28;20091;-50
2023/03/22 06:05:54;;;;;;;3.00;0.70;;;;;;;10.83;79.13;98248.03;5062521;28;20048;-49
2023/03/22 06:08:22;;;;;;;1.67;0.50;;;;;;;10.86;78.71;98253.13;5062643;28;20784;-49
2023/03/22 06:10:52;;;;;;;1.63;0.93;;;;;;;10.88;78.70;98259.13;5066313;28;20600;-48
2023/03/22 06:13:19;;;;;;;6.53;3.17;;;;;;;10.87;79.22;98270.34;5054497;28;20053;-53
2023/03/22 06:15:46;;;;;;;1.70;1.15;;;;;;;10.87;78.27;98265.19;5054723;28;20049;-48
2023/03/22 06:18:13;;;;;;;1.35;1.00;;;;;;;10.85;78.15;98282.53;5049700;28;20500;-49
2023/03/22 06:20:39;;;;;;;1.50;0.73;;;;;;;10.84;78.62;98273.06;5052754;28;20045;-50
2023/03/22 06:23:07;;;;;;;1.38;0.98;;;;;;;10.84;77.92;98280.84;5060662;28;20051;-50
2023/03/22 06:25:33;;;;;;;2.58;0.30;;;;;;;10.86;78.69;98273.84;5056692;28;20192;-52
2023/03/22 06:28:00;;;;;;;1.05;0.85;;;;;;;10.86;77.85;98279.03;5066725;28;20098;-49
2023/03/22 06:30:27;;;;;;;2.88;0.47;;;;;;;10.86;78.05;98279.03;5060320;28;20435;-48
2023/03/22 06:32:54;;;;;;;4.88;1.23;;;;;;;10.87;78.16;98283.31;5065674;28;20048;-49
2023/03/22 06:35:20;;;;;;;2.28;0.93;;;;;;;10.87;78.45;98275.53;5057149;28;20110;-51
2023/03/22 06:37:47;;;;;;;3.88;0.95;;;;;;;10.88;77.90;98272.06;5058178;28;20048;-49
2023/03/22 06:40:14;;;;;;;5.28;1.73;;;;;;;10.87;77.54;98271.22;5059771;28;21136;-49
2023/03/22 06:42:40;;;;;;;1.83;0.95;;;;;;;10.80;78.80;98286.09;5063665;28;20047;-49
2023/03/22 06:45:07;;;;;;;2.95;0.98;;;;;;;10.86;77.88;98299.75;5055806;28;20072;-51
2023/03/22 06:47:34;;;;;;;2.15;0.65;;;;;;;10.89;77.79;98310.00;5059004;28;20044;-49
2023/03/22 06:50:01;;;;;;;2.42;1.20;;;;;;;10.90;78.46;98311.69;5066858;28;20128;-48
2023/03/22 06:52:27;;;;;;;7.32;2.20;;;;;;;10.91;78.25;98313.41;5061244;28;20071;-48
2023/03/22 06:54:55;;;;;;;3.42;1.20;;;;;;;10.93;77.17;98316.78;5058918;28;20080;-49
2023/03/22 06:57:22;;;;;;;4.40;0.82;;;;;;;10.92;77.93;98326.28;5061754;28;20113;-48
2023/03/22 06:59:48;;;;;;;3.35;1.30;;;;;;;10.95;77.56;98311.56;5070141;28;20045;-53
2023/03/22 07:02:15;;;;;;;6.70;1.90;;;;;;;10.96;77.02;98310.66;5065181;28;20530;-53
2023/03/22 07:04:44;;;;;;;5.70;1.30;;;;;;;10.95;77.62;98325.38;5064523;28;20071;-50
2023/03/22 07:07:11;;;;;;;10.45;2.40;;;;;;;10.98;77.46;98327.84;5059765;28;20044;-50
2023/03/22 07:09:38;;;;;;;8.73;2.70;;;;;;;10.99;78.01;98328.69;5058459;28;20075;-51
2023/03/22 07:12:05;;;;;;;7.63;2.67;;;;;;;10.99;77.57;98326.97;5057214;28;20076;-49
2023/03/22 07:14:32;;;;;;;5.82;2.25;;;;;;;11.01;77.59;98325.16;5063313;28;20054;-48
2023/03/22 07:16:59;;;;;;;9.68;2.95;;;;;;;11.00;77.33;98341.59;5062219;28;20124;-48
2023/03/22 07:19:26;;;;;;;5.32;2.85;;;;;;;11.00;76.57;98333.84;5061817;28;20589;-52
2023/03/22 07:21:53;;;;;;;3.33;1.48;;;;;;;10.97;77.17;98333.94;5060223;28;20068;-51
2023/03/22 07:24:19;;;;;;;6.78;1.33;;;;;;;10.97;77.22;98344.28;5059441;28;20145;-50
2023/03/22 07:26:46;;;;;;;6.95;2.10;;;;;;;10.99;77.30;98357.19;5070288;28;20110;-51
2023/03/22 07:29:13;;;;;;;4.82;3.13;;;;;;;10.98;76.15;98361.50;5061001;28;20053;-49
2023/03/22 07:31:39;;;;;;;7.28;3.42;;;;;;;11.01;76.53;98361.44;5062011;28;20045;-49
2023/03/22 07:34:06;;;;;;;6.30;2.88;;;;;;;11.04;76.13;98376.88;5058771;28;20075;-48
2023/03/22 07:36:32;;;;;;;10.35;2.40;;;;;;;11.06;76.21;98379.41;5057812;28;20092;-50
2023/03/22 07:38:59;;;;;;;7.10;1.92;;;;;;;11.09;76.91;98374.16;5060883;28;20048;-49
2023/03/22 07:41:28;;;;;;;7.00;1.88;;;;;;;11.14;76.96;98377.44;5058407;28;20045;-50
2023/03/22 07:43:55;;;;;;;8.05;2.55;;;;;;;11.19;77.22;98385.91;5057027;28;20056;-50
2023/03/22 07:46:36;;;;;;;8.55;2.10;;;;;;;11.28;75.96;98389.94;5060115;28;20049;-49
2023/03/22 07:49:03;;;;;;;8.68;1.45;;;;;;;11.36;75.83;98388.84;5063310;28;20040;-49
2023/03/22 07:51:30;;;;;;;9.77;2.40;;;;;;;11.40;76.64;98386.13;5062541;28;20083;-49
2023/03/22 07:53:56;;;;;;;15.40;4.78;;;;;;;11.44;75.27;98387.72;5061258;28;20082;-48
2023/03/22 07:56:23;;;;;;;7.50;2.30;;;;;;;11.46;75.80;98377.28;5060992;28;20093;-49
2023/03/22 07:58:49;;;;;;;11.95;2.75;;;;;;;11.51;75.75;98390.94;5058188;28;20052;-48
2023/03/22 08:01:16;;;;;;;12.23;2.83;;;;;;;11.54;74.72;98390.84;5061062;28;20080;-49
2023/03/22 08:03:43;;;;;;;10.93;2.45;;;;;;;11.57;75.63;98384.69;5060284;28;20472;-51
2023/03/22 08:06:11;;;;;;;11.63;2.65;;;;;;;11.56;74.24;98391.63;5059894;28;20076;-49
2023/03/22 08:08:38;;;;;;;8.65;1.63;;;;;;;11.58;73.71;98391.56;5057190;28;20075;-51
2023/03/22 08:11:06;;;;;;;12.85;2.20;;;;;;;11.59;74.33;98402.81;5056154;28;20110;-48
2023/03/22 08:13:33;;;;;;;10.75;2.17;;;;;;;11.57;73.74;98395.94;5059228;28;20052;-52
2023/03/22 08:15:59;;;;;;;11.65;2.20;;;;;;;11.55;72.26;98397.72;5065451;28;20054;-51
2023/03/22 08:18:26;;;;;;;7.95;1.88;;;;;;;11.55;71.84;98397.72;5062593;28;20146;-49
2023/03/22 08:20:58;;;;;;;13.25;1.80;;;;;;;11.57;72.27;98389.88;5067644;28;20052;-50
2023/03/22 08:23:26;;;;;;;9.10;1.83;;;;;;;11.59;72.16;98392.44;5062779;28;20514;-50
2023/03/22 08:26:06;;;;;;;8.60;1.73;;;;;;;11.66;72.13;98393.91;5065069;28;20044;-49
2023/03/22 08:28:33;;;;;;;11.52;2.25;;;;;;;11.77;71.47;98394.41;5068770;28;20059;-52
2023/03/22 08:30:59;;;;;;;9.00;1.13;;;;;;;11.88;71.66;98403.53;5062051;28;20048;-50
2023/03/22 08:33:27;;;;;;;13.65;2.50;;;;;;;11.89;71.95;98397.47;5062891;28;20073;-52
2023/03/22 08:36:05;;;;;;;11.68;1.70;;;;;;;11.87;71.08;98407.03;5067106;28;20125;-50
2023/03/22 08:38:31;;;;;;;8.30;1.10;;;;;;;11.81;71.06;98396.00;5060290;28;20075;-48
2023/03/22 08:40:58;;;;;;;7.75;1.50;;;;;;;11.76;72.09;98397.03;5058383;28;20052;-49
2023/03/22 08:43:25;;;;;;;10.30;1.77;;;;;;;11.74;71.15;98394.50;5064731;28;20140;-48
2023/03/22 08:45:51;;;;;;;9.32;1.20;;;;;;;11.75;71.62;98401.38;5063886;28;20045;-49
2023/03/22 08:48:18;;;;;;;14.45;1.67;;;;;;;11.82;72.40;98405.47;5063052;28;20041;-50
2023/03/22 08:50:45;;;;;;;8.57;1.50;;;;;;;11.98;72.45;98391.94;5071474;28;20045;-49
2023/03/22 08:53:12;;;;;;;8.48;1.73;;;;;;;12.17;71.22;98404.31;5060606;28;20065;-51
2023/03/22 08:55:43;;;;;;;12.77;1.92;;;;;;;12.39;71.05;98406.13;5059446;28;20079;-51
2023/03/22 08:58:12;;;;;;;10.05;2.13;;;;;;;12.53;70.61;98411.66;5063770;28;20044;-50
2023/03/22 09:00:40;;;;;;;7.47;1.38;;;;;;;12.83;70.05;98411.41;5069348;28;20090;-51
2023/03/22 09:03:15;;;;;;;13.73;1.70;;;;;;;13.34;71.08;98413.75;5066984;28;20103;-53
2023/03/22 09:05:41;;;;;;;11.18;1.73;;;;;;;13.93;69.84;98414.88;5064342;28;20059;-50
2023/03/22 09:08:08;;;;;;;19.85;2.50;;;;;;;14.69;69.28;98428.94;5060672;28;20048;-53
2023/03/22 09:10:50;;;;;;;8.57;1.70;;;;;;;15.69;68.06;98425.09;5059288;28;20075;-51
2023/03/22 09:13:17;;;;;;;17.55;2.45;;;;;;;16.50;66.59;98435.84;5059924;28;20045;-51
2023/03/22 09:15:44;;;;;;;10.40;1.85;;;;;;;17.13;64.11;98429.00;5069104;28;20430;-51
2023/03/22 09:18:11;;;;;;;10.85;1.27;;;;;;;17.60;62.15;98421.13;5058786;28;20068;-50
2023/03/22 09:20:38;;;;;;;18.02;2.72;;;;;;;17.96;58.87;98412.03;5056473;28;20501;-53
2023/03/22 09:23:05;;;;;;;9.00;2.47;;;;;;;18.59;60.04;98418.81;5056914;28;20056;-53
2023/03/22 09:25:32;;;;;;;11.43;2.33;;;;;;;19.17;57.85;98428.34;5072340;28;20056;-48
2023/03/22 09:27:58;;;;;;;14.80;2.38;;;;;;;19.80;57.58;98427.78;5064753;28;20048;-48
2023/03/22 09:30:26;;;;;;;10.48;2.85;;;;;;;20.36;55.82;98424.06;5067106;28;20099;-52
2023/03/22 09:32:53;;;;;;;11.60;1.65;;;;;;;20.90;54.99;98419.41;5063376;28;20041;-49
2023/03/22 09:35:19;;;;;;;12.07;1.55;;;;;;;21.37;54.15;98423.94;5061951;28;20488;-48
2023/03/22 09:37:48;;;;;;;13.32;2.28;;;;;;;21.80;53.32;98425.22;5065660;28;20052;-51
2023/03/22 09:40:16;;;;;;;9.68;1.90;;;;;;;22.11;51.79;98424.66;5057897;28;20052;-50
2023/03/22 09:42:47;;;;;;;8.32;1.55;;;;;;;22.33;50.37;98413.31;5066275;28;20400;-49
2023/03/22 09:45:26;;;;;;;7.13;2.00;;;;;;;22.63;51.20;98429.50;5041564;28;20091;-48
2023/03/22 09:47:54;;;;;;;7.10;1.45;;;;;;;23.01;50.80;98430.88;5055949;28;20113;-50
2023/03/22 09:50:25;;;;;;;10.55;1.98;;;;;;;23.13;48.83;98415.00;5064606;28;20068;-51
2023/03/22 09:52:52;;;;;;;11.88;1.90;;;;;;;23.19;48.21;98420.63;5059211;28;20743;-50
2023/03/22 09:55:29;;;;;;;11.15;1.85;;;;;;;23.11;46.49;98408.03;5064451;28;20130;-50
2023/03/22 09:58:06;;;;;;;11.45;2.35;;;;;;;23.24;47.83;98407.88;5087251;28;20108;-51
2023/03/22 10:00:59;;;;;;;9.35;1.65;;;;;;;23.45;46.30;98408.91;5106015;27;20474;-48
2023/03/22 10:04:06;;;;;;;15.70;2.00;;;;;;;23.56;45.27;98405.34;5087460;28;20453;-52
2023/03/22 10:06:33;;;;;;;12.27;2.17;;;;;;;23.67;44.63;98412.41;5072937;28;20052;-51
2023/03/22 10:09:25;;;;;;;8.50;2.22;;;;;;;23.56;41.41;98400.06;5084120;28;20059;-51
2023/03/22 10:12:03;;;;;;;8.57;1.85;;;;;;;23.40;41.96;98395.25;5087029;28;20078;-51
2023/03/22 10:17:14;;;;;;;8.90;2.22;;;;;;;23.28;41.75;98403.19;5066530;27;20393;-52
2023/03/22 10:19:51;;;;;;;8.55;2.90;;;;;;;23.24;40.49;98409.69;5048618;28;20040;-55
2023/03/22 10:22:23;;;;;;;12.40;2.22;;;;;;;23.20;42.89;98400.34;5060043;28;20552;-52
2023/03/22 10:24:52;;;;;;;13.52;2.75;;;;;;;23.27;43.46;98404.13;5058932;28;20516;-53
2023/03/22 10:27:20;;;;;;;11.65;1.40;;;;;;;23.38;43.19;98403.28;5053912;28;20049;-53
2023/03/22 10:29:52;;;;;;;8.55;2.15;;;;;;;23.44;42.25;98402.78;5046393;28;20053;-53
2023/03/22 10:32:25;;;;;;;11.10;1.90;;;;;;;23.28;40.91;98413.75;5048612;28;20060;-52
2023/03/22 10:34:51;;;;;;;11.23;2.45;;;;;;;23.20;42.00;98413.53;5055291;28;20528;-52
2023/03/22 10:37:23;;;;;;;9.70;2.10;;;;;;;23.05;41.66;98397.13;5051919;28;20124;-51
2023/03/22 10:39:54;;;;;;;14.77;2.53;;;;;;;22.84;41.39;98390.81;5049540;28;20508;-49
2023/03/22 10:42:27;;;;;;;13.82;2.38;;;;;;;22.53;41.85;98409.06;5047115;28;20084;-51
2023/03/22 10:45:00;;;;;;;11.68;2.05;;;;;;;22.36;41.47;98406.94;5033241;28;20042;-51
2023/03/22 10:47:52;;;;;;;15.40;2.00;;;;;;;22.30;43.18;98414.38;5043488;28;20136;-52
2023/03/22 10:50:25;;;;;;;19.98;2.13;;;;;;;22.29;42.79;98420.59;5039023;28;20041;-52
2023/03/22 10:55:44;;;;;;;9.13;1.45;;;;;;;22.01;42.00;98413.97;5055446;27;20403;-52
2023/03/22 11:03:28;;;;;;;10.05;3.35;;;;;;;21.39;42.15;98406.25;5069978;27;20784;-50
2023/03/22 11:06:19;;;;;;;12.75;2.33;;;;;;;21.22;42.88;98413.63;5053982;28;20091;-49
2023/03/22 11:08:51;;;;;;;14.93;2.05;;;;;;;21.05;43.14;98406.94;5092088;27;20064;-52
2023/03/22 11:16:49;;;;;;;13.93;3.70;;;;;;;20.55;44.34;98415.69;5046336;28;20406;-54
2023/03/22 11:19:25;;;;;;;11.98;3.63;;;;;;;20.50;45.11;98416.00;5006563;28;20148;-50
2023/03/22 11:21:54;;;;;;;20.98;4.75;;;;;;;20.34;44.54;98418.91;5023233;28;20068;-51
2023/03/22 11:24:24;;;;;;;14.77;3.83;;;;;;;20.25;44.67;98412.47;5028847;28;20662;-50
2023/03/22 11:27:21;;;;;;;14.65;3.95;;;;;;;20.05;43.26;98419.09;5029412;28;20064;-50
2023/03/22 11:29:50;;;;;;;13.13;3.90;;;;;;;19.81;43.71;98411.06;5020619;28;20077;-49
2023/03/22 11:32:29;;;;;;;11.38;3.40;;;;;;;19.61;44.46;98400.13;5019433;28;20053;-52
2023/03/22 11:37:43;;;;;;;12.82;1.73;;;;;;;19.12;45.06;98411.13;5051136;28;20394;-50
2023/03/22 11:40:18;;;;;;;13.35;2.10;;;;;;;18.96;45.10;98408.63;5002911;28;20050;-50
2023/03/22 11:42:48;;;;;;;13.50;2.35;;;;;;;18.87;45.50;98403.94;4993562;28;20057;-51
2023/03/22 11:45:22;;;;;;;15.70;3.72;;;;;;;18.88;46.15;98408.28;4992634;28;20049;-51
2023/03/22 11:47:48;;;;;;;10.82;2.15;;;;;;;18.92;46.67;98404.50;5009113;28;20069;-52
2023/03/22 11:50:26;;;;;;;8.65;1.65;;;;;;;18.95;46.75;98409.53;5010229;28;20729;-49
2023/03/22 11:52:53;;;;;;;9.60;1.77;;;;;;;18.97;46.88;98401.56;5013034;28;20046;-50
2023/03/22 11:55:20;;;;;;;12.82;2.03;;;;;;;18.96;46.72;98406.00;5009709;28;20104;-49
2023/03/22 11:57:48;;;;;;;12.93;2.05;;;;;;;18.87;46.72;98404.81;5008463;28;20073;-52
2023/03/22 12:02:56;;;;;;;12.88;2.00;;;;;;;18.71;46.63;98388.38;5020027;28;20763;-50
2023/03/22 12:05:27;;;;;;;12.82;1.85;;;;;;;18.69;47.03;98396.31;5003525;28;20046;-52
2023/03/22 12:08:00;;;;;;;8.45;1.90;;;;;;;18.68;46.03;98375.44;5003287;28;20042;-49
2023/03/22 12:13:13;;;;;;;14.98;2.05;;;;;;;18.61;45.87;98385.47;5078437;27;20402;-49
2023/03/22 12:15:47;;;;;;;15.48;2.10;;;;;;;18.57;46.22;98386.59;5054654;28;20041;-50
2023/03/22 12:18:21;;;;;;;12.70;1.83;;;;;;;18.48;46.05;98396.72;5054777;28;20092;-50
2023/03/22 12:20:56;;;;;;;10.95;2.22;;;;;;;18.59;47.75;98397.81;5056307;28;20056;-50
2023/03/22 12:23:27;;;;;;;10.98;1.35;;;;;;;18.62;46.34;98377.50;5069685;28;20574;-50
2023/03/22 12:26:02;;;;;;;10.45;1.85;;;;;;;18.60;46.91;98404.75;5065317;28;20087;-52
2023/03/22 12:28:39;;;;;;;8.55;2.20;;;;;;;18.59;46.95;98388.19;5033434;28;20065;-49
2023/03/22 12:31:12;;;;;;;7.20;1.27;;;;;;;18.59;46.84;98392.59;5046188;28;20045;-49
2023/03/22 12:33:47;;;;;;;11.25;3.58;;;;;;;18.67;46.57;98374.59;5054935;28;20592;-49
2023/03/22 12:36:20;;;;;;;7.75;1.70;;;;;;;18.69;46.66;98361.38;5050576;28;20461;-50
2023/03/22 12:38:53;;;;;;;10.77;2.05;;;;;;;18.62;45.72;98351.28;5060324;28;20049;-49